Terminal Aerodrome Forecast
Issued by NWS

Home | Current Version | Previous Version | Graphics & Text | Print | Product List | Glossary Off
Versions: 1 2 3 4 5 6 7 8 9 10 11 12 13

000
FTUS43 KMPX 061744
TAFRWF
TAF
KRWF 061744Z 0618/0718 23017G30KT P6SM SCT250
     FM070100 30015KT P6SM VCSH SCT100
     FM070600 34008KT P6SM SCT080 BKN200=

USA.gov is the U.S. government's official web portal to all federal, state and local government web resources and services.